createdAt,value
2022-10-11T00:00:59.420Z,0
2022-10-11T00:03:58.367Z,0
2022-10-11T00:06:59.278Z,0
2022-10-11T00:09:58.945Z,0
2022-10-11T00:12:58.749Z,0
2022-10-11T00:15:59.185Z,0.3333333333333333
2022-10-11T00:18:58.684Z,0
2022-10-11T00:21:59.582Z,0
2022-10-11T00:24:58.861Z,0
2022-10-11T00:27:59.136Z,0
2022-10-11T00:30:58.811Z,0
2022-10-11T00:33:58.951Z,0
2022-10-11T00:36:58.854Z,0.6666666666666666
2022-10-11T00:39:59.665Z,0
2022-10-11T00:42:58.844Z,0
2022-10-11T00:45:58.745Z,0
2022-10-11T00:48:58.510Z,0
2022-10-11T00:51:59.569Z,0
2022-10-11T00:54:58.914Z,0
2022-10-11T00:57:59.028Z,0
2022-10-11T01:00:59.440Z,0
2022-10-11T01:03:58.479Z,0
2022-10-11T01:06:58.495Z,0
2022-10-11T01:09:58.456Z,0
2022-10-11T01:12:59.416Z,0
2022-10-11T01:15:59.109Z,0
2022-10-11T01:18:59.267Z,0.6666666666666666
2022-10-11T01:21:58.260Z,0
2022-10-11T01:24:59.095Z,0
2022-10-11T01:27:58.514Z,0.3333333333333333
2022-10-11T01:30:59.935Z,0
2022-10-11T01:33:58.793Z,0
2022-10-11T01:36:58.105Z,0
2022-10-11T01:39:58.970Z,0
2022-10-11T01:42:58.275Z,0
2022-10-11T01:45:59.259Z,0
2022-10-11T01:48:58.861Z,0
2022-10-11T01:51:59.184Z,0
2022-10-11T01:55:09.076Z,0.6666666666666666
2022-10-11T01:57:59.119Z,0
2022-10-11T02:00:58.797Z,0
2022-10-11T02:03:59.001Z,0.3333333333333333
2022-10-11T02:06:59.659Z,0
2022-10-11T02:09:59.465Z,0
2022-10-11T02:12:58.498Z,0
2022-10-11T02:15:58.390Z,0
2022-10-11T02:18:59.327Z,0
2022-10-11T02:21:58.446Z,0
2022-10-11T02:24:58.964Z,0
2022-10-11T02:27:58.163Z,1.6666666666666667
2022-10-11T02:30:59.184Z,0.3333333333333333
2022-10-11T02:34:00.827Z,0
2022-10-11T02:36:59.317Z,0
2022-10-11T02:39:59.011Z,0
2022-10-11T02:42:59.102Z,0
2022-10-11T02:45:59.214Z,0
2022-10-11T02:48:58.385Z,0
2022-10-11T02:51:58.789Z,0
2022-10-11T02:54:58.579Z,0
2022-10-11T02:57:58.757Z,0
2022-10-11T03:00:58.853Z,0
2022-10-11T03:03:59.260Z,0
2022-10-11T03:06:58.714Z,0
2022-10-11T03:09:59.500Z,0
2022-10-11T03:12:58.805Z,0
2022-10-11T03:16:03.261Z,0
2022-10-11T03:18:58.506Z,0
2022-10-11T03:21:58.525Z,0
2022-10-11T03:25:02.707Z,0
2022-10-11T03:27:59.509Z,0
2022-10-11T03:30:59.341Z,0
2022-10-11T03:33:59.250Z,0.3333333333333333
2022-10-11T03:36:58.732Z,0
2022-10-11T03:39:58.202Z,0
2022-10-11T03:42:58.359Z,0
2022-10-11T03:45:58.270Z,0
2022-10-11T03:48:58.191Z,0
2022-10-11T03:51:58.529Z,0
2022-10-11T03:54:58.487Z,0
2022-10-11T03:57:58.979Z,0
2022-10-11T04:00:59.955Z,0
2022-10-11T04:03:58.874Z,0.3333333333333333
2022-10-11T04:06:58.213Z,0
2022-10-11T04:09:58.831Z,0
2022-10-11T04:12:58.727Z,0
2022-10-11T04:15:59.209Z,0
2022-10-11T04:18:58.040Z,0
2022-10-11T04:21:58.752Z,0
2022-10-11T04:24:59.281Z,0
2022-10-11T04:27:58.590Z,0
2022-10-11T04:30:58.975Z,0
2022-10-11T04:33:58.698Z,0
2022-10-11T04:36:58.590Z,0
2022-10-11T04:39:58.896Z,0
2022-10-11T04:42:59.406Z,0
2022-10-11T04:45:58.606Z,0
2022-10-11T04:48:58.647Z,0
2022-10-11T04:51:58.689Z,0
2022-10-11T04:54:59.496Z,0
2022-10-11T04:58:01.346Z,0
2022-10-11T05:01:00.341Z,0
2022-10-11T05:03:59.431Z,0
2022-10-11T05:06:59.272Z,0
2022-10-11T05:09:59.603Z,0
2022-10-11T05:12:59.050Z,0
2022-10-11T05:16:00.170Z,0
2022-10-11T05:18:59.450Z,0
2022-10-11T05:21:59.012Z,1
2022-10-11T05:24:59.150Z,2.3333333333333335
2022-10-11T05:27:58.865Z,3.3333333333333335
2022-10-11T05:30:59.367Z,4
2022-10-11T05:33:58.814Z,5
2022-10-11T05:36:58.626Z,6.666666666666667
2022-10-11T05:39:59.266Z,8
2022-10-11T05:42:59.643Z,10.666666666666666
2022-10-11T05:45:58.617Z,12.666666666666666
2022-10-11T05:48:58.761Z,15.333333333333334
2022-10-11T05:51:59.966Z,19
2022-10-11T05:54:58.863Z,28.333333333333332
2022-10-11T05:57:59.672Z,33
2022-10-11T06:00:59.568Z,28.666666666666668
2022-10-11T06:03:59.718Z,30.666666666666668
2022-10-11T06:06:59.235Z,38
2022-10-11T06:10:00.064Z,36.666666666666664
2022-10-11T06:12:59.272Z,45
2022-10-11T06:15:59.227Z,54
2022-10-11T06:18:59.693Z,45
2022-10-11T06:21:59.091Z,40
2022-10-11T06:24:59.590Z,42
2022-10-11T06:27:58.529Z,52.666666666666664
2022-10-11T06:30:58.992Z,51.333333333333336
2022-10-11T06:33:58.930Z,55.333333333333336
2022-10-11T06:36:58.361Z,67.66666666666667
2022-10-11T06:39:58.891Z,75.66666666666667
2022-10-11T06:42:59.411Z,86.33333333333333
2022-10-11T06:45:59.491Z,96.33333333333333
2022-10-11T06:48:59.282Z,89.33333333333333
2022-10-11T06:51:58.511Z,69.66666666666667
2022-10-11T06:54:59.342Z,57.666666666666664
2022-10-11T06:57:59.218Z,48
2022-10-11T07:00:59.559Z,40.666666666666664
2022-10-11T07:03:58.632Z,46.666666666666664
2022-10-11T07:06:58.575Z,37.333333333333336
2022-10-11T07:09:59.347Z,34
2022-10-11T07:12:58.938Z,25.666666666666668
2022-10-11T07:15:59.369Z,19.333333333333332
2022-10-11T07:19:00.418Z,28.666666666666668
2022-10-11T07:21:59.256Z,31.666666666666668
2022-10-11T07:25:01.770Z,81.33333333333333
2022-10-11T07:27:59.134Z,99
2022-10-11T07:30:59.430Z,114.66666666666667
2022-10-11T07:33:59.103Z,128
2022-10-11T07:36:59.121Z,136.33333333333334
2022-10-11T07:39:59.101Z,144.66666666666666
2022-10-11T07:42:58.593Z,145.66666666666666
2022-10-11T07:45:58.780Z,139
2022-10-11T07:48:58.878Z,128.33333333333334
2022-10-11T07:51:59.054Z,132.33333333333334
2022-10-11T07:54:59.336Z,121.66666666666667
2022-10-11T07:57:59.740Z,115.66666666666667
2022-10-11T08:00:59.777Z,115.33333333333333
2022-10-11T08:03:59.701Z,109.33333333333333
2022-10-11T08:06:59.106Z,110
2022-10-11T08:09:59.609Z,114.33333333333333
2022-10-11T08:13:04.120Z,116
2022-10-11T08:15:59.277Z,111.66666666666667
2022-10-11T08:18:59.390Z,130.33333333333334
2022-10-11T08:21:58.712Z,138.66666666666666
2022-10-11T08:24:59.353Z,152.33333333333334
2022-10-11T08:27:58.652Z,167.33333333333334
2022-10-11T08:30:59.331Z,170.33333333333334
2022-10-11T08:33:58.466Z,177.33333333333334
2022-10-11T08:36:58.669Z,207.66666666666666
2022-10-11T08:39:59.776Z,228
2022-10-11T08:42:59.213Z,291.6666666666667
2022-10-11T08:45:59.090Z,355
2022-10-11T08:48:59.421Z,456
2022-10-11T08:51:59.315Z,535.6666666666666
2022-10-11T08:54:58.910Z,571.6666666666666
2022-10-11T08:57:59.588Z,395.6666666666667
2022-10-11T09:00:59.461Z,286
2022-10-11T09:03:59.128Z,227.66666666666666
2022-10-11T09:07:03.855Z,246
2022-10-11T09:09:58.780Z,281.6666666666667
2022-10-11T09:12:58.720Z,287.6666666666667
2022-10-11T09:15:59.632Z,245.66666666666666
2022-10-11T09:18:58.907Z,223.66666666666666
2022-10-11T09:21:58.895Z,211.66666666666666
2022-10-11T09:24:58.593Z,215.33333333333334
2022-10-11T09:28:02.821Z,220.66666666666666
2022-10-11T09:30:58.596Z,260
2022-10-11T09:33:58.372Z,228.66666666666666
2022-10-11T09:36:58.796Z,225.33333333333334
2022-10-11T09:39:59.301Z,203
2022-10-11T09:42:58.598Z,194
2022-10-11T09:45:59.307Z,238.33333333333334
2022-10-11T09:48:58.949Z,284.6666666666667
2022-10-11T09:51:59.177Z,330.6666666666667
2022-10-11T09:54:58.291Z,375
2022-10-11T09:57:59.218Z,413
2022-10-11T10:01:01.757Z,383.3333333333333
2022-10-11T10:03:59.041Z,390.6666666666667
2022-10-11T10:06:58.861Z,333.6666666666667
2022-10-11T10:09:59.122Z,268.3333333333333
2022-10-11T10:12:59.676Z,228.33333333333334
2022-10-11T10:15:58.866Z,256.3333333333333
2022-10-11T10:18:58.857Z,286
2022-10-11T10:21:59.289Z,284.6666666666667
2022-10-11T10:24:58.853Z,317.3333333333333
2022-10-11T10:27:58.955Z,353
2022-10-11T10:30:59.018Z,400.6666666666667
2022-10-11T10:33:58.742Z,476.3333333333333
2022-10-11T10:36:59.198Z,530.3333333333334
2022-10-11T10:39:58.706Z,566.6666666666666
2022-10-11T10:42:59.038Z,582.3333333333334
2022-10-11T10:45:59.512Z,563
2022-10-11T10:49:48.508Z,565.3333333333334
2022-10-11T10:51:59.427Z,560.3333333333334
2022-10-11T10:54:59.088Z,529
2022-10-11T10:57:58.885Z,463.3333333333333
2022-10-11T11:00:59.401Z,428.6666666666667
2022-10-11T11:04:18.418Z,381.6666666666667
2022-10-11T11:06:59.172Z,332.3333333333333
2022-10-11T11:09:59.107Z,312.3333333333333
2022-10-11T11:12:59.278Z,298
2022-10-11T11:15:59.420Z,277.6666666666667
2022-10-11T11:18:59.125Z,341
2022-10-11T11:21:59.261Z,451
2022-10-11T11:24:58.864Z,504.6666666666667
2022-10-11T11:27:59.277Z,468
2022-10-11T11:30:58.913Z,551.6666666666666
2022-10-11T11:33:58.845Z,583
2022-10-11T11:36:58.801Z,607.6666666666666
2022-10-11T11:39:58.662Z,538.6666666666666
2022-10-11T11:42:59.286Z,476
2022-10-11T11:45:58.854Z,412
2022-10-11T11:48:58.976Z,337
2022-10-11T11:51:58.634Z,261.6666666666667
2022-10-11T11:55:02.978Z,229
2022-10-11T11:58:02.063Z,237.66666666666666
2022-10-11T12:00:59.343Z,265.6666666666667
2022-10-11T12:03:58.408Z,301.3333333333333
2022-10-11T12:07:15.478Z,333
2022-10-11T12:09:58.942Z,333.3333333333333
2022-10-11T12:12:59.256Z,313.3333333333333
2022-10-11T12:15:59.200Z,247.33333333333334
2022-10-11T12:18:59.217Z,243.33333333333334
2022-10-11T12:21:59.272Z,259
2022-10-11T12:24:59.138Z,304
2022-10-11T12:27:59.502Z,354.6666666666667
2022-10-11T12:30:59.241Z,366.3333333333333
2022-10-11T12:33:58.877Z,339
2022-10-11T12:37:01.181Z,311.3333333333333
2022-10-11T12:39:59.038Z,321.6666666666667
2022-10-11T12:42:59.362Z,313
2022-10-11T12:45:59.832Z,315.3333333333333
2022-10-11T12:48:59.711Z,346.6666666666667
2022-10-11T12:51:58.871Z,379.6666666666667
2022-10-11T12:54:58.716Z,481.6666666666667
2022-10-11T12:57:58.316Z,556
2022-10-11T13:00:59.380Z,463
2022-10-11T13:03:58.738Z,421.6666666666667
2022-10-11T13:07:01.038Z,424.3333333333333
2022-10-11T13:09:58.932Z,486
2022-10-11T13:12:58.457Z,475
2022-10-11T13:15:59.626Z,490
2022-10-11T13:18:58.520Z,513
2022-10-11T13:21:58.640Z,519.3333333333334
2022-10-11T13:24:59.291Z,532.3333333333334
2022-10-11T13:27:59.090Z,478
2022-10-11T13:30:59.186Z,398.6666666666667
2022-10-11T13:33:58.312Z,349.6666666666667
2022-10-11T13:36:58.437Z,305.6666666666667
2022-10-11T13:39:59.810Z,276.3333333333333
2022-10-11T13:42:59.116Z,276.6666666666667
2022-10-11T13:45:59.046Z,271.6666666666667
2022-10-11T13:48:59.319Z,247.33333333333334
2022-10-11T13:51:59.118Z,236.33333333333334
2022-10-11T13:54:58.848Z,203
2022-10-11T13:57:59.259Z,195.66666666666666
2022-10-11T14:00:59.439Z,195
2022-10-11T14:03:59.094Z,201
2022-10-11T14:06:59.342Z,195.33333333333334
2022-10-11T14:09:58.716Z,183.66666666666666
2022-10-11T14:13:00.019Z,180
2022-10-11T14:15:59.910Z,177.33333333333334
2022-10-11T14:18:58.625Z,182.33333333333334
2022-10-11T14:21:59.426Z,178.33333333333334
2022-10-11T14:24:59.433Z,170
2022-10-11T14:27:58.932Z,175.66666666666666
2022-10-11T14:30:59.665Z,184.33333333333334
2022-10-11T14:33:59.334Z,184.33333333333334
2022-10-11T14:36:59.341Z,176
2022-10-11T14:39:59.268Z,175.66666666666666
2022-10-11T14:42:59.381Z,187
2022-10-11T14:45:59.282Z,208
2022-10-11T14:48:59.114Z,231.66666666666666
2022-10-11T14:51:59.456Z,260.6666666666667
2022-10-11T14:54:59.235Z,250.33333333333334
2022-10-11T14:57:59.509Z,236
2022-10-11T15:00:59.608Z,215
2022-10-11T15:03:59.198Z,198
2022-10-11T15:06:59.117Z,197
2022-10-11T15:09:59.359Z,189.33333333333334
2022-10-11T15:12:59.012Z,170.33333333333334
2022-10-11T15:15:59.038Z,163.33333333333334
2022-10-11T15:18:59.682Z,165.33333333333334
2022-10-11T15:21:58.658Z,169
2022-10-11T15:24:59.503Z,173.33333333333334
2022-10-11T15:27:59.494Z,173.33333333333334
2022-10-11T15:30:59.649Z,167.33333333333334
2022-10-11T15:33:59.326Z,162
2022-10-11T15:36:58.867Z,156.33333333333334
2022-10-11T15:39:59.273Z,149.66666666666666
2022-10-11T15:42:59.369Z,138.33333333333334
2022-10-11T15:45:59.609Z,128.66666666666666
2022-10-11T15:49:01.225Z,118.33333333333333
2022-10-11T15:51:59.162Z,108.33333333333333
2022-10-11T15:54:59.139Z,97.66666666666667
2022-10-11T15:57:59.212Z,88.33333333333333
2022-10-11T16:00:59.834Z,83
2022-10-11T16:03:58.665Z,78
2022-10-11T16:06:59.036Z,70.33333333333333
2022-10-11T16:09:59.552Z,63.666666666666664
2022-10-11T16:12:59.300Z,55.333333333333336
2022-10-11T16:15:58.955Z,50.333333333333336
2022-10-11T16:18:59.542Z,42.666666666666664
2022-10-11T16:21:59.640Z,35.333333333333336
2022-10-11T16:24:59.336Z,26
2022-10-11T16:27:59.655Z,20.666666666666668
2022-10-11T16:30:59.610Z,16.333333333333332
2022-10-11T16:33:58.860Z,14.666666666666666
2022-10-11T16:36:58.662Z,9.333333333333334
2022-10-11T16:39:59.825Z,7.333333333333333
2022-10-11T16:43:00.766Z,6.666666666666667
2022-10-11T16:45:58.639Z,7.666666666666667
2022-10-11T16:48:58.517Z,7.333333333333333
2022-10-11T16:51:59.702Z,2.3333333333333335
2022-10-11T16:54:58.732Z,0.3333333333333333
2022-10-11T16:57:58.569Z,0
2022-10-11T17:01:00.998Z,0
2022-10-11T17:03:59.247Z,0
2022-10-11T17:06:59.740Z,0.6666666666666666
2022-10-11T17:09:59.698Z,0.6666666666666666
2022-10-11T17:12:58.570Z,0
2022-10-11T17:15:58.686Z,0.3333333333333333
2022-10-11T17:18:59.189Z,0
2022-10-11T17:21:58.997Z,0
2022-10-11T17:24:59.517Z,0
2022-10-11T17:27:58.437Z,0
2022-10-11T17:30:59.022Z,0.3333333333333333
2022-10-11T17:33:58.865Z,0
2022-10-11T17:36:58.771Z,0
2022-10-11T17:39:58.871Z,0.3333333333333333
2022-10-11T17:42:58.915Z,0.3333333333333333
2022-10-11T17:45:58.853Z,0
2022-10-11T17:48:58.874Z,1
2022-10-11T17:51:59.433Z,0
2022-10-11T17:54:58.294Z,0
2022-10-11T17:57:58.550Z,0
2022-10-11T18:01:25.861Z,0
2022-10-11T18:03:59.481Z,0.3333333333333333
2022-10-11T18:06:58.755Z,1.3333333333333333
2022-10-11T18:09:59.321Z,1
2022-10-11T18:13:01.942Z,0
2022-10-11T18:15:58.701Z,0.6666666666666666
2022-10-11T18:18:58.976Z,0
2022-10-11T18:22:01.993Z,1
2022-10-11T18:24:58.993Z,0
2022-10-11T18:27:59.683Z,0.6666666666666666
2022-10-11T18:30:59.441Z,0
2022-10-11T18:33:59.161Z,0.3333333333333333
2022-10-11T18:36:59.018Z,1
2022-10-11T18:39:59.167Z,0.3333333333333333
2022-10-11T18:42:59.409Z,0
2022-10-11T18:45:59.079Z,0.3333333333333333
2022-10-11T18:48:59.004Z,0
2022-10-11T18:51:59.366Z,0
2022-10-11T18:54:59.058Z,1
2022-10-11T18:57:59.649Z,0
2022-10-11T19:00:59.884Z,1
2022-10-11T19:03:58.650Z,0
2022-10-11T19:06:58.588Z,0.3333333333333333
2022-10-11T19:09:59.545Z,1
2022-10-11T19:12:58.888Z,1.3333333333333333
2022-10-11T19:15:59.466Z,0
2022-10-11T19:18:59.067Z,0
2022-10-11T19:21:59.524Z,0
2022-10-11T19:24:59.194Z,0.3333333333333333
2022-10-11T19:27:59.279Z,0
2022-10-11T19:30:58.804Z,0.6666666666666666
2022-10-11T19:33:59.233Z,0
2022-10-11T19:36:58.618Z,0
2022-10-11T19:39:59.079Z,0
2022-10-11T19:42:59.640Z,1
2022-10-11T19:45:59.040Z,0
2022-10-11T19:48:58.991Z,0
2022-10-11T19:51:59.472Z,0
2022-10-11T19:54:59.093Z,0
2022-10-11T19:57:58.292Z,0
2022-10-11T20:00:59.085Z,0
2022-10-11T20:03:59.214Z,0
2022-10-11T20:06:59.447Z,0
2022-10-11T20:09:59.574Z,0
2022-10-11T20:12:58.747Z,0
2022-10-11T20:15:58.897Z,0
2022-10-11T20:18:59.566Z,0
2022-10-11T20:21:59.078Z,0
2022-10-11T20:24:58.984Z,0
2022-10-11T20:27:59.173Z,0
2022-10-11T20:30:59.564Z,0
2022-10-11T20:33:58.962Z,0
2022-10-11T20:36:59.228Z,0
2022-10-11T20:39:59.446Z,0
2022-10-11T20:42:58.842Z,0
2022-10-11T20:45:58.383Z,0
2022-10-11T20:49:01.769Z,0
2022-10-11T20:51:58.432Z,0
2022-10-11T20:54:58.539Z,0
2022-10-11T20:57:59.049Z,0
2022-10-11T21:00:59.293Z,0
2022-10-11T21:03:58.685Z,0
2022-10-11T21:06:58.867Z,0
2022-10-11T21:09:58.871Z,0
2022-10-11T21:13:00.019Z,0
2022-10-11T21:15:59.442Z,0
2022-10-11T21:18:59.509Z,0
2022-10-11T21:21:58.726Z,0
2022-10-11T21:24:59.472Z,0
2022-10-11T21:27:58.605Z,0
2022-10-11T21:30:59.729Z,0
2022-10-11T21:33:58.747Z,0
2022-10-11T21:36:58.555Z,0
2022-10-11T21:39:58.882Z,0
2022-10-11T21:42:59.500Z,0
2022-10-11T21:45:59.198Z,0
2022-10-11T21:48:59.224Z,0
2022-10-11T21:51:59.400Z,0
2022-10-11T21:54:59.142Z,0
2022-10-11T21:57:59.312Z,0
2022-10-11T22:00:59.247Z,0
2022-10-11T22:03:58.093Z,0
2022-10-11T22:06:59.541Z,0
2022-10-11T22:09:59.874Z,0
2022-10-11T22:12:58.929Z,0
2022-10-11T22:15:58.478Z,0
2022-10-11T22:18:58.989Z,0
2022-10-11T22:21:59.342Z,0
2022-10-11T22:24:58.788Z,0
2022-10-11T22:27:58.860Z,0
2022-10-11T22:30:59.130Z,0
2022-10-11T22:33:59.072Z,0
2022-10-11T22:36:59.323Z,0
2022-10-11T22:39:58.520Z,0
2022-10-11T22:42:59.044Z,0
2022-10-11T22:45:58.681Z,0
2022-10-11T22:48:58.554Z,0
2022-10-11T22:51:58.410Z,0
2022-10-11T22:54:58.678Z,0
2022-10-11T22:57:58.967Z,0
2022-10-11T23:00:59.284Z,0
2022-10-11T23:03:58.384Z,0
2022-10-11T23:07:02.586Z,0
2022-10-11T23:09:59.238Z,0
2022-10-11T23:12:59.141Z,0
2022-10-11T23:15:59.317Z,0
2022-10-11T23:18:58.947Z,0
2022-10-11T23:21:58.899Z,0
2022-10-11T23:24:59.059Z,0
2022-10-11T23:27:58.833Z,0
2022-10-11T23:30:58.950Z,0
2022-10-11T23:33:58.900Z,0
2022-10-11T23:36:58.809Z,0
2022-10-11T23:39:58.704Z,0
2022-10-11T23:42:58.625Z,0
2022-10-11T23:45:58.570Z,0
2022-10-11T23:48:58.932Z,0
2022-10-11T23:51:58.443Z,0
2022-10-11T23:54:59.032Z,0
2022-10-11T23:57:59.244Z,0
